sensor_id;sensor_type;location;lat;lon;timestamp;P1;durP1;ratioP1;P2;durP2;ratioP2
23099;SDS011;53791;50.696;4.396;2022-07-09T00:02:04;25.02;;;22.82;;
23099;SDS011;53791;50.696;4.396;2022-07-09T00:04:32;24.57;;;22.37;;
23099;SDS011;53791;50.696;4.396;2022-07-09T00:06:59;24.70;;;22.50;;
23099;SDS011;53791;50.696;4.396;2022-07-09T00:09:27;24.47;;;22.27;;
23099;SDS011;53791;50.696;4.396;2022-07-09T00:11:54;25.05;;;22.80;;
23099;SDS011;53791;50.696;4.396;2022-07-09T00:14:22;24.95;;;22.65;;
23099;SDS011;53791;50.696;4.396;2022-07-09T00:16:50;25.17;;;22.90;;
23099;SDS011;53791;50.696;4.396;2022-07-09T00:19:17;25.32;;;23.02;;
23099;SDS011;53791;50.696;4.396;2022-07-09T00:21:45;25.48;;;23.05;;
23099;SDS011;53791;50.696;4.396;2022-07-09T00:24:12;25.52;;;23.22;;
23099;SDS011;53791;50.696;4.396;2022-07-09T00:26:40;26.00;;;23.60;;
23099;SDS011;53791;50.696;4.396;2022-07-09T00:29:07;25.10;;;22.90;;
23099;SDS011;53791;50.696;4.396;2022-07-09T00:31:35;25.15;;;22.95;;
23099;SDS011;53791;50.696;4.396;2022-07-09T00:34:03;25.85;;;23.55;;
23099;SDS011;53791;50.696;4.396;2022-07-09T00:36:30;26.35;;;23.95;;
23099;SDS011;53791;50.696;4.396;2022-07-09T00:38:58;26.62;;;24.10;;
23099;SDS011;53791;50.696;4.396;2022-07-09T00:41:25;28.10;;;24.90;;
23099;SDS011;53791;50.696;4.396;2022-07-09T00:43:53;27.58;;;24.92;;
23099;SDS011;53791;50.696;4.396;2022-07-09T00:46:20;26.95;;;24.55;;
23099;SDS011;53791;50.696;4.396;2022-07-09T00:48:48;26.57;;;24.27;;
23099;SDS011;53791;50.696;4.396;2022-07-09T00:51:16;26.33;;;24.02;;
23099;SDS011;53791;50.696;4.396;2022-07-09T00:53:44;26.60;;;24.20;;
23099;SDS011;53791;50.696;4.396;2022-07-09T00:59:01;26.60;;;24.07;;
23099;SDS011;53791;50.696;4.396;2022-07-09T01:01:31;26.40;;;24.10;;
23099;SDS011;53791;50.696;4.396;2022-07-09T01:03:59;26.85;;;24.55;;
23099;SDS011;53791;50.696;4.396;2022-07-09T01:06:28;27.42;;;25.02;;
23099;SDS011;53791;50.696;4.396;2022-07-09T01:08:55;27.05;;;24.67;;
23099;SDS011;53791;50.696;4.396;2022-07-09T01:11:23;27.73;;;25.23;;
23099;SDS011;53791;50.696;4.396;2022-07-09T01:13:51;26.57;;;24.27;;
23099;SDS011;53791;50.696;4.396;2022-07-09T01:16:19;26.25;;;24.05;;
23099;SDS011;53791;50.696;4.396;2022-07-09T01:18:47;26.48;;;24.18;;
23099;SDS011;53791;50.696;4.396;2022-07-09T01:21:14;26.60;;;24.30;;
23099;SDS011;53791;50.696;4.396;2022-07-09T01:23:42;26.70;;;24.40;;
23099;SDS011;53791;50.696;4.396;2022-07-09T01:26:09;26.35;;;24.05;;
23099;SDS011;53791;50.696;4.396;2022-07-09T01:28:37;26.55;;;24.25;;
23099;SDS011;53791;50.696;4.396;2022-07-09T01:31:04;27.13;;;24.63;;
23099;SDS011;53791;50.696;4.396;2022-07-09T01:33:32;26.57;;;24.27;;
23099;SDS011;53791;50.696;4.396;2022-07-09T01:35:59;26.00;;;23.80;;
23099;SDS011;53791;50.696;4.396;2022-07-09T01:38:27;26.00;;;23.80;;
23099;SDS011;53791;50.696;4.396;2022-07-09T01:40:54;26.12;;;23.92;;
23099;SDS011;53791;50.696;4.396;2022-07-09T01:43:23;26.77;;;24.47;;
23099;SDS011;53791;50.696;4.396;2022-07-09T01:45:51;27.10;;;24.80;;
23099;SDS011;53791;50.696;4.396;2022-07-09T01:48:18;27.45;;;25.05;;
23099;SDS011;53791;50.696;4.396;2022-07-09T01:50:46;27.62;;;25.23;;
23099;SDS011;53791;50.696;4.396;2022-07-09T01:53:13;26.77;;;24.47;;
23099;SDS011;53791;50.696;4.396;2022-07-09T01:55:41;27.02;;;24.72;;
23099;SDS011;53791;50.696;4.396;2022-07-09T01:58:08;27.00;;;24.60;;
23099;SDS011;53791;50.696;4.396;2022-07-09T02:00:36;26.02;;;23.83;;
23099;SDS011;53791;50.696;4.396;2022-07-09T02:03:03;26.77;;;24.47;;
23099;SDS011;53791;50.696;4.396;2022-07-09T02:05:31;26.48;;;24.18;;
23099;SDS011;53791;50.696;4.396;2022-07-09T02:07:58;26.40;;;24.18;;
23099;SDS011;53791;50.696;4.396;2022-07-09T02:10:26;26.10;;;23.90;;
23099;SDS011;53791;50.696;4.396;2022-07-09T02:12:53;25.65;;;23.45;;
23099;SDS011;53791;50.696;4.396;2022-07-09T02:15:21;26.55;;;24.25;;
23099;SDS011;53791;50.696;4.396;2022-07-09T02:17:49;26.82;;;24.32;;
23099;SDS011;53791;50.696;4.396;2022-07-09T02:20:16;26.60;;;24.30;;
23099;SDS011;53791;50.696;4.396;2022-07-09T02:22:44;26.50;;;24.27;;
23099;SDS011;53791;50.696;4.396;2022-07-09T02:25:11;27.22;;;24.92;;
23099;SDS011;53791;50.696;4.396;2022-07-09T02:27:39;27.02;;;24.72;;
23099;SDS011;53791;50.696;4.396;2022-07-09T02:30:06;26.52;;;24.27;;
23099;SDS011;53791;50.696;4.396;2022-07-09T02:32:34;26.45;;;24.25;;
23099;SDS011;53791;50.696;4.396;2022-07-09T02:35:04;27.50;;;25.20;;
23099;SDS011;53791;50.696;4.396;2022-07-09T02:37:32;26.95;;;24.65;;
23099;SDS011;53791;50.696;4.396;2022-07-09T02:40:00;28.10;;;25.70;;
23099;SDS011;53791;50.696;4.396;2022-07-09T02:42:27;27.35;;;25.05;;
23099;SDS011;53791;50.696;4.396;2022-07-09T02:44:55;27.05;;;24.75;;
23099;SDS011;53791;50.696;4.396;2022-07-09T02:47:22;27.15;;;24.85;;
23099;SDS011;53791;50.696;4.396;2022-07-09T02:49:50;27.13;;;24.82;;
23099;SDS011;53791;50.696;4.396;2022-07-09T02:52:17;26.75;;;24.47;;
23099;SDS011;53791;50.696;4.396;2022-07-09T02:54:45;26.68;;;24.37;;
23099;SDS011;53791;50.696;4.396;2022-07-09T02:57:12;26.93;;;24.63;;
23099;SDS011;53791;50.696;4.396;2022-07-09T02:59:40;26.57;;;24.37;;
23099;SDS011;53791;50.696;4.396;2022-07-09T03:02:07;26.85;;;24.55;;
23099;SDS011;53791;50.696;4.396;2022-07-09T03:04:35;27.05;;;24.75;;
23099;SDS011;53791;50.696;4.396;2022-07-09T03:07:02;26.85;;;24.55;;
23099;SDS011;53791;50.696;4.396;2022-07-09T03:09:30;27.15;;;24.85;;
23099;SDS011;53791;50.696;4.396;2022-07-09T03:11:57;27.75;;;25.45;;
23099;SDS011;53791;50.696;4.396;2022-07-09T03:14:25;27.35;;;25.05;;
23099;SDS011;53791;50.696;4.396;2022-07-09T03:16:52;26.85;;;24.60;;
23099;SDS011;53791;50.696;4.396;2022-07-09T03:19:20;28.10;;;25.02;;
23099;SDS011;53791;50.696;4.396;2022-07-09T03:21:47;26.68;;;24.43;;
23099;SDS011;53791;50.696;4.396;2022-07-09T03:24:15;26.87;;;24.57;;
23099;SDS011;53791;50.696;4.396;2022-07-09T03:26:42;27.62;;;25.23;;
23099;SDS011;53791;50.696;4.396;2022-07-09T03:29:11;26.65;;;24.35;;
23099;SDS011;53791;50.696;4.396;2022-07-09T03:31:39;27.07;;;24.77;;
23099;SDS011;53791;50.696;4.396;2022-07-09T03:34:06;26.95;;;24.65;;
23099;SDS011;53791;50.696;4.396;2022-07-09T03:36:34;27.45;;;25.10;;
23099;SDS011;53791;50.696;4.396;2022-07-09T03:39:02;27.48;;;25.08;;
23099;SDS011;53791;50.696;4.396;2022-07-09T03:41:29;27.25;;;24.95;;
23099;SDS011;53791;50.696;4.396;2022-07-09T03:43:57;27.17;;;24.87;;
23099;SDS011;53791;50.696;4.396;2022-07-09T03:46:24;27.22;;;24.92;;
23099;SDS011;53791;50.696;4.396;2022-07-09T03:48:52;27.80;;;25.50;;
23099;SDS011;53791;50.696;4.396;2022-07-09T03:51:19;27.55;;;25.25;;
23099;SDS011;53791;50.696;4.396;2022-07-09T03:53:47;27.60;;;25.30;;
23099;SDS011;53791;50.696;4.396;2022-07-09T03:56:14;27.70;;;25.40;;
23099;SDS011;53791;50.696;4.396;2022-07-09T03:58:42;27.75;;;25.30;;
23099;SDS011;53791;50.696;4.396;2022-07-09T04:01:09;26.82;;;24.63;;
23099;SDS011;53791;50.696;4.396;2022-07-09T04:03:37;27.07;;;24.87;;
23099;SDS011;53791;50.696;4.396;2022-07-09T04:06:05;27.42;;;25.15;;
23099;SDS011;53791;50.696;4.396;2022-07-09T04:08:33;26.85;;;24.60;;
23099;SDS011;53791;50.696;4.396;2022-07-09T04:11:00;26.97;;;24.77;;
23099;SDS011;53791;50.696;4.396;2022-07-09T04:13:28;26.57;;;24.37;;
23099;SDS011;53791;50.696;4.396;2022-07-09T04:15:55;26.80;;;24.60;;
23099;SDS011;53791;50.696;4.396;2022-07-09T04:18:23;25.92;;;23.83;;
23099;SDS011;53791;50.696;4.396;2022-07-09T04:20:50;26.62;;;24.40;;
23099;SDS011;53791;50.696;4.396;2022-07-09T04:23:19;26.50;;;24.30;;
23099;SDS011;53791;50.696;4.396;2022-07-09T04:25:47;27.07;;;24.77;;
23099;SDS011;53791;50.696;4.396;2022-07-09T04:28:17;26.82;;;24.63;;
23099;SDS011;53791;50.696;4.396;2022-07-09T04:30:45;27.82;;;25.52;;
23099;SDS011;53791;50.696;4.396;2022-07-09T04:33:13;27.95;;;25.52;;
23099;SDS011;53791;50.696;4.396;2022-07-09T04:35:40;26.97;;;24.77;;
23099;SDS011;53791;50.696;4.396;2022-07-09T04:38:08;26.82;;;24.52;;
23099;SDS011;53791;50.696;4.396;2022-07-09T04:40:36;26.95;;;24.75;;
23099;SDS011;53791;50.696;4.396;2022-07-09T04:43:04;27.25;;;24.98;;
23099;SDS011;53791;50.696;4.396;2022-07-09T04:45:32;27.05;;;24.85;;
23099;SDS011;53791;50.696;4.396;2022-07-09T04:48:00;28.65;;;26.35;;
23099;SDS011;53791;50.696;4.396;2022-07-09T04:50:27;26.90;;;24.70;;
23099;SDS011;53791;50.696;4.396;2022-07-09T04:52:55;27.22;;;25.02;;
23099;SDS011;53791;50.696;4.396;2022-07-09T04:55:22;26.85;;;24.65;;
23099;SDS011;53791;50.696;4.396;2022-07-09T04:57:50;28.20;;;25.60;;
23099;SDS011;53791;50.696;4.396;2022-07-09T05:00:17;27.10;;;24.80;;
23099;SDS011;53791;50.696;4.396;2022-07-09T05:02:45;27.02;;;24.82;;
23099;SDS011;53791;50.696;4.396;2022-07-09T05:05:13;27.17;;;24.98;;
23099;SDS011;53791;50.696;4.396;2022-07-09T05:07:40;28.45;;;25.50;;
23099;SDS011;53791;50.696;4.396;2022-07-09T05:10:08;26.73;;;24.52;;
23099;SDS011;53791;50.696;4.396;2022-07-09T05:12:36;27.58;;;25.27;;
23099;SDS011;53791;50.696;4.396;2022-07-09T05:15:04;26.93;;;24.65;;
23099;SDS011;53791;50.696;4.396;2022-07-09T05:17:36;28.10;;;25.60;;
23099;SDS011;53791;50.696;4.396;2022-07-09T05:20:04;27.85;;;25.45;;
23099;SDS011;53791;50.696;4.396;2022-07-09T05:22:33;28.57;;;25.97;;
23099;SDS011;53791;50.696;4.396;2022-07-09T05:25:02;27.27;;;24.98;;
23099;SDS011;53791;50.696;4.396;2022-07-09T05:27:31;28.73;;;26.23;;
23099;SDS011;53791;50.696;4.396;2022-07-09T05:29:58;30.23;;;27.52;;
23099;SDS011;53791;50.696;4.396;2022-07-09T05:32:26;27.32;;;25.12;;
23099;SDS011;53791;50.696;4.396;2022-07-09T05:34:53;26.60;;;24.30;;
23099;SDS011;53791;50.696;4.396;2022-07-09T05:37:21;27.80;;;25.30;;
23099;SDS011;53791;50.696;4.396;2022-07-09T05:39:48;26.80;;;24.50;;
23099;SDS011;53791;50.696;4.396;2022-07-09T05:42:16;26.77;;;24.47;;
23099;SDS011;53791;50.696;4.396;2022-07-09T05:44:43;27.30;;;25.00;;
23099;SDS011;53791;50.696;4.396;2022-07-09T05:47:11;26.02;;;23.75;;
23099;SDS011;53791;50.696;4.396;2022-07-09T05:49:38;34.63;;;23.83;;
23099;SDS011;53791;50.696;4.396;2022-07-09T05:52:06;26.65;;;24.43;;
23099;SDS011;53791;50.696;4.396;2022-07-09T05:54:33;26.25;;;24.05;;
23099;SDS011;53791;50.696;4.396;2022-07-09T05:57:02;27.15;;;24.85;;
23099;SDS011;53791;50.696;4.396;2022-07-09T05:59:30;25.60;;;23.50;;
23099;SDS011;53791;50.696;4.396;2022-07-09T06:01:57;25.72;;;23.52;;
23099;SDS011;53791;50.696;4.396;2022-07-09T06:04:26;25.97;;;23.77;;
23099;SDS011;53791;50.696;4.396;2022-07-09T06:06:54;23.00;;;21.10;;
23099;SDS011;53791;50.696;4.396;2022-07-09T06:09:22;23.75;;;21.75;;
23099;SDS011;53791;50.696;4.396;2022-07-09T06:11:49;22.60;;;20.65;;
23099;SDS011;53791;50.696;4.396;2022-07-09T06:14:17;23.22;;;21.02;;
23099;SDS011;53791;50.696;4.396;2022-07-09T06:16:45;22.95;;;20.90;;
23099;SDS011;53791;50.696;4.396;2022-07-09T06:19:13;24.85;;;22.27;;
23099;SDS011;53791;50.696;4.396;2022-07-09T06:21:40;22.17;;;20.17;;
23099;SDS011;53791;50.696;4.396;2022-07-09T06:24:08;22.40;;;20.37;;
23099;SDS011;53791;50.696;4.396;2022-07-09T06:26:35;21.60;;;19.70;;
23099;SDS011;53791;50.696;4.396;2022-07-09T06:29:03;22.15;;;20.15;;
23099;SDS011;53791;50.696;4.396;2022-07-09T06:31:30;21.42;;;19.52;;
23099;SDS011;53791;50.696;4.396;2022-07-09T06:33:58;21.17;;;19.37;;
23099;SDS011;53791;50.696;4.396;2022-07-09T06:36:25;21.73;;;19.73;;
23099;SDS011;53791;50.696;4.396;2022-07-09T06:38:53;20.92;;;19.12;;
23099;SDS011;53791;50.696;4.396;2022-07-09T06:41:39;21.15;;;19.32;;
23099;SDS011;53791;50.696;4.396;2022-07-09T06:44:06;21.40;;;19.50;;
23099;SDS011;53791;50.696;4.396;2022-07-09T06:46:34;20.82;;;19.02;;
23099;SDS011;53791;50.696;4.396;2022-07-09T06:49:01;20.52;;;18.73;;
23099;SDS011;53791;50.696;4.396;2022-07-09T06:51:29;21.70;;;19.75;;
23099;SDS011;53791;50.696;4.396;2022-07-09T06:53:56;21.45;;;19.65;;
23099;SDS011;53791;50.696;4.396;2022-07-09T06:56:24;20.72;;;18.82;;
23099;SDS011;53791;50.696;4.396;2022-07-09T06:58:52;19.90;;;18.20;;
23099;SDS011;53791;50.696;4.396;2022-07-09T07:01:19;19.90;;;18.12;;
23099;SDS011;53791;50.696;4.396;2022-07-09T07:03:47;20.12;;;18.30;;
23099;SDS011;53791;50.696;4.396;2022-07-09T07:06:14;19.32;;;17.73;;
23099;SDS011;53791;50.696;4.396;2022-07-09T07:08:42;19.32;;;17.73;;
23099;SDS011;53791;50.696;4.396;2022-07-09T07:11:09;19.02;;;17.42;;
23099;SDS011;53791;50.696;4.396;2022-07-09T07:13:37;19.15;;;17.55;;
23099;SDS011;53791;50.696;4.396;2022-07-09T07:16:04;19.90;;;18.20;;
23099;SDS011;53791;50.696;4.396;2022-07-09T07:18:32;20.08;;;18.37;;
23099;SDS011;53791;50.696;4.396;2022-07-09T07:21:00;19.30;;;17.70;;
23099;SDS011;53791;50.696;4.396;2022-07-09T07:23:27;19.50;;;17.90;;
23099;SDS011;53791;50.696;4.396;2022-07-09T07:25:57;19.52;;;17.92;;
23099;SDS011;53791;50.696;4.396;2022-07-09T07:28:25;19.42;;;17.82;;
23099;SDS011;53791;50.696;4.396;2022-07-09T07:30:53;19.62;;;17.92;;
23099;SDS011;53791;50.696;4.396;2022-07-09T07:33:20;19.48;;;17.77;;
23099;SDS011;53791;50.696;4.396;2022-07-09T07:35:48;19.67;;;18.00;;
23099;SDS011;53791;50.696;4.396;2022-07-09T07:38:16;19.40;;;17.80;;
23099;SDS011;53791;50.696;4.396;2022-07-09T07:40:43;19.48;;;17.87;;
23099;SDS011;53791;50.696;4.396;2022-07-09T07:43:11;19.50;;;17.90;;
23099;SDS011;53791;50.696;4.396;2022-07-09T07:45:39;19.57;;;17.98;;
23099;SDS011;53791;50.696;4.396;2022-07-09T07:48:06;19.10;;;17.50;;
23099;SDS011;53791;50.696;4.396;2022-07-09T07:50:34;19.27;;;17.67;;
23099;SDS011;53791;50.696;4.396;2022-07-09T07:53:03;19.27;;;17.73;;
23099;SDS011;53791;50.696;4.396;2022-07-09T07:55:32;19.50;;;17.90;;
23099;SDS011;53791;50.696;4.396;2022-07-09T07:58:00;19.12;;;17.52;;
23099;SDS011;53791;50.696;4.396;2022-07-09T08:00:28;19.67;;;18.07;;
23099;SDS011;53791;50.696;4.396;2022-07-09T08:02:55;18.90;;;17.30;;
23099;SDS011;53791;50.696;4.396;2022-07-09T08:05:23;19.20;;;17.62;;
23099;SDS011;53791;50.696;4.396;2022-07-09T08:07:51;19.37;;;17.77;;
23099;SDS011;53791;50.696;4.396;2022-07-09T08:10:18;19.05;;;17.55;;
23099;SDS011;53791;50.696;4.396;2022-07-09T08:12:46;19.50;;;17.90;;
23099;SDS011;53791;50.696;4.396;2022-07-09T08:15:14;25.00;;;18.32;;
23099;SDS011;53791;50.696;4.396;2022-07-09T08:17:41;19.07;;;17.57;;
23099;SDS011;53791;50.696;4.396;2022-07-09T08:20:10;19.00;;;17.50;;
23099;SDS011;53791;50.696;4.396;2022-07-09T08:22:38;19.20;;;17.50;;
23099;SDS011;53791;50.696;4.396;2022-07-09T08:25:05;19.05;;;17.52;;
23099;SDS011;53791;50.696;4.396;2022-07-09T08:27:33;19.20;;;17.70;;
23099;SDS011;53791;50.696;4.396;2022-07-09T08:30:00;19.42;;;17.90;;
23099;SDS011;53791;50.696;4.396;2022-07-09T08:32:28;19.67;;;18.07;;
23099;SDS011;53791;50.696;4.396;2022-07-09T08:34:56;18.80;;;17.30;;
23099;SDS011;53791;50.696;4.396;2022-07-09T08:37:23;19.50;;;17.90;;
23099;SDS011;53791;50.696;4.396;2022-07-09T08:39:51;19.25;;;17.75;;
23099;SDS011;53791;50.696;4.396;2022-07-09T08:42:18;19.20;;;17.60;;
23099;SDS011;53791;50.696;4.396;2022-07-09T08:44:47;19.07;;;17.57;;
23099;SDS011;53791;50.696;4.396;2022-07-09T08:47:14;19.35;;;17.65;;
23099;SDS011;53791;50.696;4.396;2022-07-09T08:49:42;18.42;;;17.00;;
23099;SDS011;53791;50.696;4.396;2022-07-09T08:52:11;18.82;;;17.32;;
23099;SDS011;53791;50.696;4.396;2022-07-09T08:54:42;19.55;;;17.95;;
23099;SDS011;53791;50.696;4.396;2022-07-09T08:57:10;19.07;;;17.52;;
23099;SDS011;53791;50.696;4.396;2022-07-09T08:59:38;18.60;;;17.10;;
23099;SDS011;53791;50.696;4.396;2022-07-09T09:02:06;18.60;;;17.10;;
23099;SDS011;53791;50.696;4.396;2022-07-09T09:04:38;18.40;;;16.90;;
23099;SDS011;53791;50.696;4.396;2022-07-09T09:07:15;18.48;;;17.00;;
23099;SDS011;53791;50.696;4.396;2022-07-09T09:09:44;19.17;;;17.35;;
23099;SDS011;53791;50.696;4.396;2022-07-09T09:12:12;18.50;;;17.00;;
23099;SDS011;53791;50.696;4.396;2022-07-09T09:14:47;18.62;;;17.12;;
23099;SDS011;53791;50.696;4.396;2022-07-09T09:17:15;18.30;;;16.82;;
23099;SDS011;53791;50.696;4.396;2022-07-09T09:19:43;17.98;;;16.57;;
23099;SDS011;53791;50.696;4.396;2022-07-09T09:22:14;17.95;;;16.55;;
23099;SDS011;53791;50.696;4.396;2022-07-09T09:24:41;18.45;;;16.73;;
23099;SDS011;53791;50.696;4.396;2022-07-09T09:27:09;18.00;;;16.60;;
23099;SDS011;53791;50.696;4.396;2022-07-09T09:29:36;18.27;;;16.77;;
23099;SDS011;53791;50.696;4.396;2022-07-09T09:32:09;18.37;;;16.93;;
23099;SDS011;53791;50.696;4.396;2022-07-09T09:34:38;18.67;;;17.20;;
23099;SDS011;53791;50.696;4.396;2022-07-09T09:37:07;18.05;;;16.65;;
23099;SDS011;53791;50.696;4.396;2022-07-09T09:39:34;19.07;;;17.48;;
23099;SDS011;53791;50.696;4.396;2022-07-09T09:42:03;18.70;;;17.20;;
23099;SDS011;53791;50.696;4.396;2022-07-09T09:44:32;17.95;;;16.55;;
23099;SDS011;53791;50.696;4.396;2022-07-09T09:47:07;18.37;;;16.90;;
23099;SDS011;53791;50.696;4.396;2022-07-09T09:49:36;18.85;;;17.30;;
23099;SDS011;53791;50.696;4.396;2022-07-09T09:52:05;19.85;;;17.67;;
23099;SDS011;53791;50.696;4.396;2022-07-09T09:54:35;18.35;;;16.90;;
23099;SDS011;53791;50.696;4.396;2022-07-09T09:57:07;18.30;;;16.85;;
23099;SDS011;53791;50.696;4.396;2022-07-09T09:59:39;17.90;;;16.50;;
23099;SDS011;53791;50.696;4.396;2022-07-09T10:02:09;18.87;;;17.27;;
23099;SDS011;53791;50.696;4.396;2022-07-09T10:04:42;18.52;;;17.02;;
23099;SDS011;53791;50.696;4.396;2022-07-09T10:07:15;19.45;;;17.30;;
23099;SDS011;53791;50.696;4.396;2022-07-09T10:09:58;19.20;;;17.60;;
23099;SDS011;53791;50.696;4.396;2022-07-09T10:12:32;18.70;;;17.20;;
23099;SDS011;53791;50.696;4.396;2022-07-09T10:15:01;18.25;;;16.75;;
23099;SDS011;53791;50.696;4.396;2022-07-09T10:17:38;19.32;;;17.62;;
23099;SDS011;53791;50.696;4.396;2022-07-09T10:20:04;19.45;;;17.85;;
23099;SDS011;53791;50.696;4.396;2022-07-09T10:22:43;20.12;;;17.98;;
23099;SDS011;53791;50.696;4.396;2022-07-09T10:25:07;18.82;;;17.30;;
23099;SDS011;53791;50.696;4.396;2022-07-09T10:27:45;19.30;;;17.73;;
23099;SDS011;53791;50.696;4.396;2022-07-09T10:30:24;19.00;;;17.50;;
23099;SDS011;53791;50.696;4.396;2022-07-09T10:35:43;19.42;;;17.80;;
23099;SDS011;53791;50.696;4.396;2022-07-09T10:38:11;20.75;;;18.30;;
23099;SDS011;53791;50.696;4.396;2022-07-09T10:40:40;20.17;;;18.30;;
23099;SDS011;53791;50.696;4.396;2022-07-09T10:43:12;19.80;;;18.10;;
23099;SDS011;53791;50.696;4.396;2022-07-09T10:45:40;22.22;;;20.32;;
23099;SDS011;53791;50.696;4.396;2022-07-09T10:48:11;21.70;;;19.70;;
23099;SDS011;53791;50.696;4.396;2022-07-09T10:50:41;21.12;;;19.32;;
23099;SDS011;53791;50.696;4.396;2022-07-09T10:53:10;22.30;;;20.25;;
23099;SDS011;53791;50.696;4.396;2022-07-09T10:55:41;21.45;;;19.65;;
23099;SDS011;53791;50.696;4.396;2022-07-09T10:58:17;21.45;;;19.65;;
23099;SDS011;53791;50.696;4.396;2022-07-09T11:00:53;21.48;;;19.62;;
23099;SDS011;53791;50.696;4.396;2022-07-09T11:03:29;22.02;;;20.23;;
23099;SDS011;53791;50.696;4.396;2022-07-09T11:05:58;22.27;;;20.27;;
23099;SDS011;53791;50.696;4.396;2022-07-09T11:08:26;21.10;;;19.40;;
23099;SDS011;53791;50.696;4.396;2022-07-09T11:10:53;21.05;;;19.35;;
23099;SDS011;53791;50.696;4.396;2022-07-09T11:13:24;21.62;;;19.75;;
23099;SDS011;53791;50.696;4.396;2022-07-09T11:15:57;21.10;;;19.35;;
23099;SDS011;53791;50.696;4.396;2022-07-09T11:18:26;21.48;;;19.57;;
23099;SDS011;53791;50.696;4.396;2022-07-09T11:20:55;19.77;;;18.17;;
23099;SDS011;53791;50.696;4.396;2022-07-09T11:23:22;20.45;;;18.77;;
23099;SDS011;53791;50.696;4.396;2022-07-09T11:25:50;21.25;;;19.48;;
23099;SDS011;53791;50.696;4.396;2022-07-09T11:28:18;20.20;;;18.50;;
23099;SDS011;53791;50.696;4.396;2022-07-09T11:31:04;19.30;;;17.80;;
23099;SDS011;53791;50.696;4.396;2022-07-09T11:33:30;20.20;;;18.50;;
23099;SDS011;53791;50.696;4.396;2022-07-09T11:36:17;20.50;;;18.75;;
23099;SDS011;53791;50.696;4.396;2022-07-09T11:38:51;19.32;;;17.82;;
23099;SDS011;53791;50.696;4.396;2022-07-09T11:41:21;20.80;;;18.95;;
23099;SDS011;53791;50.696;4.396;2022-07-09T11:43:50;20.00;;;18.40;;
23099;SDS011;53791;50.696;4.396;2022-07-09T11:46:18;20.70;;;18.67;;
23099;SDS011;53791;50.696;4.396;2022-07-09T11:48:53;20.05;;;18.45;;
23099;SDS011;53791;50.696;4.396;2022-07-09T11:51:28;20.05;;;18.45;;
23099;SDS011;53791;50.696;4.396;2022-07-09T11:53:57;27.77;;;18.32;;
23099;SDS011;53791;50.696;4.396;2022-07-09T11:56:25;19.57;;;18.00;;
23099;SDS011;53791;50.696;4.396;2022-07-09T11:58:52;19.87;;;18.27;;
23099;SDS011;53791;50.696;4.396;2022-07-09T12:01:22;20.08;;;18.40;;
23099;SDS011;53791;50.696;4.396;2022-07-09T12:03:50;19.25;;;17.75;;
23099;SDS011;53791;50.696;4.396;2022-07-09T12:06:18;19.17;;;17.57;;
23099;SDS011;53791;50.696;4.396;2022-07-09T12:08:45;19.62;;;18.12;;
23099;SDS011;53791;50.696;4.396;2022-07-09T12:11:13;19.73;;;18.12;;
23099;SDS011;53791;50.696;4.396;2022-07-09T12:13:40;19.50;;;17.90;;
23099;SDS011;53791;50.696;4.396;2022-07-09T12:16:08;19.20;;;17.70;;
23099;SDS011;53791;50.696;4.396;2022-07-09T12:18:35;19.55;;;17.95;;
23099;SDS011;53791;50.696;4.396;2022-07-09T12:21:03;19.45;;;17.95;;
23099;SDS011;53791;50.696;4.396;2022-07-09T12:23:31;19.35;;;17.80;;
23099;SDS011;53791;50.696;4.396;2022-07-09T12:25:58;19.55;;;17.98;;
23099;SDS011;53791;50.696;4.396;2022-07-09T12:28:26;19.90;;;18.30;;
23099;SDS011;53791;50.696;4.396;2022-07-09T12:30:53;19.15;;;17.62;;
23099;SDS011;53791;50.696;4.396;2022-07-09T12:33:21;19.55;;;17.95;;
23099;SDS011;53791;50.696;4.396;2022-07-09T12:35:49;18.87;;;17.37;;
23099;SDS011;53791;50.696;4.396;2022-07-09T12:38:16;19.75;;;18.15;;
23099;SDS011;53791;50.696;4.396;2022-07-09T12:40:44;19.77;;;18.17;;
23099;SDS011;53791;50.696;4.396;2022-07-09T12:43:11;19.37;;;17.85;;
23099;SDS011;53791;50.696;4.396;2022-07-09T12:45:39;19.55;;;17.98;;
23099;SDS011;53791;50.696;4.396;2022-07-09T12:48:07;19.07;;;17.57;;
23099;SDS011;53791;50.696;4.396;2022-07-09T12:50:35;20.37;;;18.62;;
23099;SDS011;53791;50.696;4.396;2022-07-09T12:53:02;20.05;;;18.45;;
23099;SDS011;53791;50.696;4.396;2022-07-09T12:55:29;19.30;;;17.80;;
23099;SDS011;53791;50.696;4.396;2022-07-09T12:57:57;19.42;;;17.92;;
23099;SDS011;53791;50.696;4.396;2022-07-09T13:00:24;19.35;;;17.75;;
23099;SDS011;53791;50.696;4.396;2022-07-09T13:02:52;19.17;;;17.55;;
23099;SDS011;53791;50.696;4.396;2022-07-09T13:05:19;18.75;;;17.25;;
23099;SDS011;53791;50.696;4.396;2022-07-09T13:07:47;19.48;;;17.87;;
23099;SDS011;53791;50.696;4.396;2022-07-09T13:10:15;19.75;;;18.15;;
23099;SDS011;53791;50.696;4.396;2022-07-09T13:12:42;19.73;;;18.07;;
23099;SDS011;53791;50.696;4.396;2022-07-09T13:15:10;19.10;;;17.60;;
23099;SDS011;53791;50.696;4.396;2022-07-09T13:17:37;19.57;;;17.98;;
23099;SDS011;53791;50.696;4.396;2022-07-09T13:20:05;19.60;;;18.00;;
23099;SDS011;53791;50.696;4.396;2022-07-09T13:22:33;20.00;;;18.20;;
23099;SDS011;53791;50.696;4.396;2022-07-09T13:25:01;19.10;;;17.60;;
23099;SDS011;53791;50.696;4.396;2022-07-09T13:27:28;19.10;;;17.60;;
23099;SDS011;53791;50.696;4.396;2022-07-09T13:29:56;19.27;;;17.77;;
23099;SDS011;53791;50.696;4.396;2022-07-09T13:32:24;19.07;;;17.57;;
23099;SDS011;53791;50.696;4.396;2022-07-09T13:34:53;19.02;;;17.52;;
23099;SDS011;53791;50.696;4.396;2022-07-09T13:37:20;19.77;;;18.00;;
23099;SDS011;53791;50.696;4.396;2022-07-09T13:39:48;19.90;;;18.30;;
23099;SDS011;53791;50.696;4.396;2022-07-09T13:42:17;19.65;;;18.05;;
23099;SDS011;53791;50.696;4.396;2022-07-09T13:44:44;19.80;;;18.20;;
23099;SDS011;53791;50.696;4.396;2022-07-09T13:47:12;19.25;;;17.75;;
23099;SDS011;53791;50.696;4.396;2022-07-09T13:49:40;19.57;;;17.98;;
23099;SDS011;53791;50.696;4.396;2022-07-09T13:52:07;19.02;;;17.52;;
23099;SDS011;53791;50.696;4.396;2022-07-09T13:54:35;19.07;;;17.57;;
23099;SDS011;53791;50.696;4.396;2022-07-09T13:57:03;19.25;;;17.65;;
23099;SDS011;53791;50.696;4.396;2022-07-09T13:59:30;19.07;;;17.57;;
23099;SDS011;53791;50.696;4.396;2022-07-09T14:01:58;19.00;;;17.50;;
23099;SDS011;53791;50.696;4.396;2022-07-09T14:04:25;19.23;;;17.62;;
23099;SDS011;53791;50.696;4.396;2022-07-09T14:06:53;19.35;;;17.75;;
23099;SDS011;53791;50.696;4.396;2022-07-09T14:09:20;18.82;;;17.32;;
23099;SDS011;53791;50.696;4.396;2022-07-09T14:11:48;19.32;;;17.82;;
23099;SDS011;53791;50.696;4.396;2022-07-09T14:14:15;18.60;;;17.00;;
23099;SDS011;53791;50.696;4.396;2022-07-09T14:16:43;19.05;;;17.55;;
23099;SDS011;53791;50.696;4.396;2022-07-09T14:19:10;19.10;;;17.60;;
23099;SDS011;53791;50.696;4.396;2022-07-09T14:21:38;19.17;;;17.60;;
23099;SDS011;53791;50.696;4.396;2022-07-09T14:24:05;18.95;;;17.45;;
23099;SDS011;53791;50.696;4.396;2022-07-09T14:26:34;18.67;;;17.17;;
23099;SDS011;53791;50.696;4.396;2022-07-09T14:29:01;18.95;;;17.45;;
23099;SDS011;53791;50.696;4.396;2022-07-09T14:31:29;18.82;;;17.32;;
23099;SDS011;53791;50.696;4.396;2022-07-09T14:33:57;19.30;;;17.70;;